Hudson, NY (12534)

4:35 AM EST on February 10, 2016 (GMT -0500)
Chip's awesome weather station in Greenport NY | | Change Station
CLOSE
Current Station
Personal Weather Station
Location: Hudson, NY
Elevation: 157 ft
Nearby Weather Stations

Elev 157 ft 42.26 °N, 73.76 °W | Updated 14 seconds ago

Snow
Snow
29.8 °F
Feels Like 30 °F
N
0.0
Wind Variable Wind from ESE
Gusts 0.0 mph

Today
High -- | Low -- °F
--% Chance of Precip.
Yesterday
High -- | Low -- °F
Precip. -- in
Pressure 29.49 in
Visibility 2.5 miles
Clouds Scattered Clouds 1100 ft
Overcast 2700 ft
Windchill 30 °F
Dew Point 26 °F
Humidity 85%
Rainfall 0.00 in
Snow Depth Not available.
6:58 AM 5:20 PM
Waxing Crescent, 4% visible
SPECI KPSF 100914Z AUTO 00000KT 2 1/2SM -SN BR SCT011 OVC027 M05/M06 A2949 RMK AO2 P0000 T10501061
Pressure 29.49 in
Visibility 2.5 miles
Clouds Scattered Clouds 1100 ft
Overcast 2700 ft
Windchill 30 °F
Dew Point 26 °F
Humidity 85%
Rainfall 0.00 in
Snow Depth Not available.
6:58 AM 5:20 PM
Waxing Crescent, 4% visible
SPECI KPSF 100914Z AUTO 00000KT 2 1/2SM -SN BR SCT011 OVC027 M05/M06 A2949 RMK AO2 P0000 T10501061

10-Day Weather Forecast

Almanac

Astronomy

Feb. 10, 2016 Rise Set
Actual Time
Civil Twilight
Nautical Twilight
Astronomical Twilight
Moon
Length of Visible Light
Length of Day
Tomorrow will be .
, % of the Moon is Illuminated

Today's Extremes

State Highs State Lows

Community

WunderPhotos

Upload Photos

1,891,826 photos uploaded!

WunderBlog® & News

Nearby

Air Quality

  Air Quality AQ Index Pollutant
Not available.

Snow Depth

Station Depth Elevation

Earthquake Activity

City Distance Mag. Time & Date
Minimum magnitude displayed is 2.5.

Coastal Water Temperatures

Place Temperature

Stations

Nearby Weather Stations

Station Location Temp. Windchill Dew Point Humidity Wind Precip. Elev Updated Type
                   

Watches & Warnings

There are currently no watches in effect.